• Join FlightAware (Why Join?)
  • Login
  • US Flag 
09:37AM EDT


 

Airport Tracker/Info


-or-


 

Live Flight TrackerFlight Track Log ✈ EJA922 ✈ 24-Oct-2013 ✈ KSJC - KBUR

Flight Track Log - Related Links

Times and Time Zones

All times are in EDT time to prevent confusion due to time zone crossing. See the EJA922 flight status page for this flight to view local times or setup timezone preferences in your user account.

Time Position Orientation Groundspeed Altitude Reporting Facility
EDT Latitude Longitude Course Direction KTS MPH feet Rate Location/Type
12:19PM 37.4500 -121.9500 141° Southeast 235 270 5,000  Level Northern Cal TRACON
12:21PM 37.3614 -121.8236 131° Southeast 225 259 8,000 1,740 Climbing Oakland Center
12:22PM 37.2969 -121.7508 138° Southeast 270 311 10,800 2,160 Climbing Oakland Center
12:23PM 37.2242 -121.6719 139° Southeast 342 394 12,500 2,100 Climbing Oakland Center
12:24PM 36.9177 -121.4014 141° Southeast  Level Estimated
12:24PM 37.1456 -121.5850 139° Southeast 375 432 15,200  Level Oakland Center
12:25PM 37.0589 -121.4947 140° Southeast 394 453 17,600 2,220 Climbing Oakland Center
12:26PM 36.9747 -121.3992 138° Southeast 406 467 19,800 1,980 Climbing Oakland Center
12:27PM 36.8850 -121.3011 139° Southeast 425 489 21,700 2,040 Climbing Oakland Center
12:28PM 36.7800 -121.2128 146° Southeast 442 509 24,100 2,040 Climbing Oakland Center
12:29PM 36.6722 -121.1253 147° Southeast 462 532 26,000 1,380 Climbing Oakland Center
12:30PM 36.5606 -121.0317 146° Southeast 482 555 27,000 480 Climbing Oakland Center
12:31PM 36.4369 -120.9336 147° Southeast 527 606 27,000  Level Oakland Center
12:32PM 36.3106 -120.8325 147° Southeast 541 623 27,000  Level Oakland Center
12:33PM 36.1597 -120.7097 147° Southeast 539 620 27,000  Level Oakland Center
12:34PM 36.0339 -120.6072 147° Southeast 542 624 27,000  Level Oakland Center
12:36PM 35.9072 -120.5053 147° Southeast 543 625 27,000  Level Oakland Center
12:37PM 35.7792 -120.4044 147° Southeast 544 626 27,000  Level Oakland Center
12:38PM 35.6508 -120.3031 147° Southeast 543 625 27,000  Level Oakland Center
12:39PM 35.5206 -120.1997 147° Southeast 546 628 27,000  Level Oakland Center
12:40PM 35.3889 -120.0964 147° Southeast 549 632 27,000 -60 Level Oakland Center
12:41PM 35.2583 -119.9942 147° Southeast 550 633 26,900 -720 Descending Oakland Center
12:42PM 35.1075 -119.8753 147° Southeast 535 616 25,500 -1,200 Descending Los Angeles Center
12:43PM 35.0081 -119.7522 135° Southeast 514 592 24,300 -1,080 Descending Los Angeles Center
12:44PM 34.9136 -119.6250 132° Southeast 508 585 23,300 -1,620 Descending Los Angeles Center
12:45PM 34.8211 -119.4997 132° Southeast 501 577 21,000 -2,580 Descending Los Angeles Center
12:46PM 34.7150 -119.3586 132° Southeast 476 548 18,000 -2,580 Descending Los Angeles Center
12:47PM 34.6325 -119.2492 132° Southeast 448 516 15,700 -2,100 Descending Los Angeles Center
12:48PM 34.5639 -119.1550 131° Southeast 420 483 13,700 -2,100 Descending Los Angeles Center
12:49PM 34.4825 -119.0450 132° Southeast 350 403 11,400 -1,800 Descending Los Angeles Center
12:50PM 34.4250 -118.9706 133° Southeast 300 345 10,100 -1,200 Descending Los Angeles Center
12:51PM 34.3719 -118.8978 131° Southeast 289 333 9,000 -1,260 Descending Los Angeles Center
12:52PM 34.3083 -118.8436 145° Southeast 282 325 7,500 -1,260 Descending Los Angeles Center
12:53PM 34.2744 -118.7697 119° Southeast 249 287 6,400 -960 Descending Los Angeles Center
12:54PM 34.2336 -118.6817 119° Southeast 249 287 5,600 -1,020 Descending Los Angeles Center
12:55PM 34.2033 -118.6131 118° Southeast 238 274 4,400 -1,080 Descending Los Angeles Center
12:56PM 34.2000 -118.5667 95° East 200 230 3,800 -840 Descending Southern California TRACON
12:57PM 34.2000 -118.5000 90° East 167 192 3,100 -780 Descending Southern California TRACON
12:58PM 34.2000 -118.4667 90° East 139 160 2,300 -840 Descending Southern California TRACON
12:59PM 34.2000 -118.4167 90° East 138 159 1,500 -540 Descending Southern California TRACON
01:00PM 34.1983 -118.3469 92° East 143 165 1,000 -360 Descending Los Angeles Center
01:02PM 34.2000 -118.3500 320° Northwest  Level FlightAware Approximate